Severn, Virginia
Current Conditions -  °F | °C
As of 3:54 AM on Sunday 26 Oct 2014 (Local Time) from KPHF Reporting Station
Clear Clear  
Wind Chill: 59°   Ceiling: Unl
Heat Index: 59°   Visibility: 10mi
Dew Point: 48°   Wind: 8mph
Humidity: 67%   Direction: 270°W
Pressure: 29.72"   Gusts: NA
Location:  37.29°N, 76.42°W
Report Text: KPHF 260754Z 27007KT 10SM CLR 15/09 A2972 RMK AO2 SLP064 T01500089
Loading
Personal Weather Stations






























Interactive Weather Map
Tropical Storm Tracking
New forecast layout! Learn more

10-Day Weather Forecast

Advertisements
Track Severe Weather on mobile